CST,Max TemperatureF,Mean TemperatureF,Min TemperatureF,Max Dew PointF,MeanDew PointF,Min DewpointF,Max Humidity, Mean Humidity, Min Humidity, Max Sea Level PressureIn, Mean Sea Level PressureIn, Min Sea Level PressureIn, Max VisibilityMiles, Mean VisibilityMiles, Min VisibilityMiles, Max Wind SpeedMPH, Mean Wind SpeedMPH, Max Gust SpeedMPH,PrecipitationIn, CloudCover, Events, WindDirDegrees
2012-12-1,48,42,35,45,39,34,100,89,76,30.09,29.87,29.74,4,2,0,14,8,20,0.00,7,Fog,145
2012-12-2,42,38,33,39,36,32,100,94,87,30.02,29.94,29.86,4,1,0,17,4,22,0.00,7,Fog-Snow,133
2012-12-3,60,48,37,55,44,30,94,81,63,29.94,29.74,29.56,10,6,2,18,9,29,0.00,5,,221
2012-12-4,42,30,17,30,20,12,79,61,44,30.42,30.17,29.94,10,10,10,15,8,23,0.00,0,,297
2012-12-5,39,27,15,21,15,10,86,59,44,30.43,30.23,29.95,10,10,10,18,7,24,0.00,1,,132
2012-12-6,46,39,32,39,31,21,87,69,49,29.99,29.88,29.82,10,10,7,16,9,22,0.10,2,Rain,249
2012-12-7,33,27,21,27,22,19,93,79,60,30.05,30.03,29.99,10,8,2,10,3,,0.00,3,Snow,357
2012-12-8,35,30,26,27,25,23,93,81,65,30.08,30.04,30.02,10,9,5,12,2,,0.00,3,Snow,110
2012-12-9,33,30,28,30,28,25,100,89,70,30.04,29.90,29.82,10,3,0,12,8,18,0.21,8,Snow,84
2012-12-10,28,13,-2,27,9,-6,93,82,68,29.95,29.91,29.84,10,7,2,12,6,17,0.00,5,Snow,299
2012-12-11,23,12,1,16,10,-2,92,82,74,30.04,29.90,29.81,10,8,2,12,4,,0.00,6,Snow,258
2012-12-12,44,25,6,25,20,3,93,64,42,30.04,29.96,29.87,10,9,5,20,6,26,0.00,3,,168
2012-12-13,39,28,17,21,18,16,93,58,45,30.13,30.02,29.96,10,10,5,14,6,22,0.00,0,,226
2012-12-14,41,26,12,30,21,10,100,75,56,30.15,30.03,29.83,10,8,3,15,5,18,0.00,1,,112
2012-12-15,41,38,35,37,35,30,100,90,65,29.83,29.61,29.51,10,3,0,14,8,20,0.26,8,Fog-Rain,110
2012-12-16,35,28,21,34,27,18,100,95,86,29.82,29.69,29.54,10,3,1,14,8,16,0.03,8,Rain-Snow,294
2012-12-17,24,22,21,21,19,18,93,89,80,29.81,29.76,29.72,10,10,2,8,3,,0.00,8,Snow,343
2012-12-18,28,26,23,27,23,21,93,85,74,29.86,29.72,29.66,10,7,4,9,3,,0.00,8,,96
2012-12-19,32,30,28,28,27,27,93,88,80,30.02,29.96,29.86,10,7,1,8,3,,0.00,8,Snow,219
2012-12-20,30,22,14,28,20,9,93,81,69,30.01,29.86,29.76,10,6,0,22,9,31,0.14,7,Snow,342
2012-12-21,23,14,5,10,6,1,92,74,54,30.27,30.19,30.02,10,10,10,15,8,23,0.00,0,,304
2012-12-22,30,16,3,16,9,0,92,79,55,30.22,30.06,29.97,10,9,5,7,2,,0.00,0,,133
2012-12-23,21,16,12,16,10,7,93,77,63,30.15,30.08,30.01,10,9,2,10,4,16,0.00,3,Snow,12
2012-12-24,19,12,6,12,7,0,79,70,58,30.27,30.09,29.99,10,9,2,10,3,,0.00,4,Snow,338
2012-12-25,14,6,-2,1,-2,-8,85,76,57,30.47,30.41,30.28,10,10,10,7,2,,0.00,0,,310
2012-12-26,19,10,0,7,1,-6,85,75,58,30.40,30.31,30.24,10,10,10,5,1,,0.00,1,,321
2012-12-27,21,10,-2,18,8,-6,93,81,68,30.27,30.22,30.15,10,8,2,5,1,,0.00,3,Snow,94
2012-12-28,24,20,15,19,16,12,93,85,74,30.15,30.06,30.00,10,4,1,7,3,,0.00,8,Snow,69
2012-12-29,19,12,6,16,11,1,93,82,68,30.20,30.09,30.01,10,8,4,13,5,,0.00,6,Snow,280
2012-12-30,24,11,-2,18,6,-8,92,80,68,30.22,30.09,29.91,10,8,3,12,2,,0.00,1,Snow,128
2012-12-31,19,6,-7,16,4,-11,93,71,53,30.26,30.14,29.95,10,10,5,12,7,20,0.00,2,Snow,316